Time;durP1;ratioP1;P1;durP2;ratioP2;P2;SDS_P1;SDS_P2;PMS_P1;PMS_P2;Temp;Humidity;BMP_temperature;BMP_pressure;BME280_temperature;BME280_humidity;BME280_pressure;Samples;Min_cycle;Max_cycle;Signal;HPM_P1;HPM_P2
2023/04/19 00:00:22;;;;;;;17.90;9.60;;;;;;;;;;109878;1265;22931;-76
2023/04/19 00:03:13;;;;;;;23.40;12.40;;;;;;;;;;109824;1286;22166;-77
2023/04/19 00:05:40;;;;;;;21.70;11.90;;;;;;;;;;109837;1285;22992;-76
2023/04/19 00:08:07;;;;;;;21.30;11.70;;;;;;;;;;109820;1286;22167;-77
2023/04/19 00:10:38;;;;;;;21.20;11.90;;;;;;;;;;109838;1268;22147;-76
2023/04/19 00:13:05;;;;;;;21.60;11.80;;;;;;;;;;109826;1286;22109;-77
2023/04/19 00:15:33;;;;;;;20.60;11.70;;;;;;;;;;109822;1286;22202;-76
2023/04/19 00:18:00;;;;;;;22.30;12.80;;;;;;;;;;109889;1280;22118;-77
2023/04/19 00:20:27;;;;;;;24.20;13.40;;;;;;;;;;110083;1263;22894;-84
2023/04/19 00:22:54;;;;;;;22.50;12.60;;;;;;;;;;110195;1280;22698;-76
2023/04/19 00:25:21;;;;;;;20.60;10.70;;;;;;;;;;110145;1280;22163;-76
2023/04/19 00:27:47;;;;;;;24.80;13.20;;;;;;;;;;110144;1280;22326;-76
2023/04/19 00:30:14;;;;;;;23.00;12.90;;;;;;;;;;110426;1262;22159;-76
2023/04/19 00:32:41;;;;;;;20.80;11.10;;;;;;;;;;110012;1281;22782;-76
2023/04/19 00:35:08;;;;;;;20.20;10.80;;;;;;;;;;109962;1281;22076;-76
2023/04/19 00:37:35;;;;;;;22.30;12.00;;;;;;;;;;110103;1281;22752;-76
2023/04/19 00:40:03;;;;;;;21.20;11.40;;;;;;;;;;110261;1259;22141;-76
2023/04/19 00:42:29;;;;;;;21.10;12.50;;;;;;;;;;110166;1267;22106;-76
2023/04/19 00:44:56;;;;;;;23.70;12.60;;;;;;;;;;110152;1280;22099;-74
2023/04/19 00:47:23;;;;;;;25.30;13.10;;;;;;;;;;110132;1280;22074;-74
2023/04/19 00:49:51;;;;;;;21.70;12.20;;;;;;;;;;110069;1265;22137;-73
2023/04/19 00:52:18;;;;;;;20.90;12.10;;;;;;;;;;109992;1281;22919;-74
2023/04/19 00:54:44;;;;;;;20.50;11.80;;;;;;;;;;110120;1281;22059;-73
2023/04/19 00:57:14;;;;;;;20.80;12.00;;;;;;;;;;110126;1281;22155;-74
2023/04/19 00:59:41;;;;;;;20.00;11.50;;;;;;;;;;110126;1257;22226;-74
2023/04/19 01:02:08;;;;;;;20.00;10.90;;;;;;;;;;110028;1280;22168;-74
2023/04/19 01:04:35;;;;;;;20.40;10.30;;;;;;;;;;110164;1281;22132;-73
2023/04/19 01:07:02;;;;;;;20.40;11.40;;;;;;;;;;110134;1280;22114;-73
2023/04/19 01:09:29;;;;;;;21.30;11.30;;;;;;;;;;110134;1280;22393;-74
2023/04/19 01:12:00;;;;;;;19.90;11.00;;;;;;;;;;109985;1262;22120;-73
2023/04/19 01:14:27;;;;;;;18.90;9.90;;;;;;;;;;110297;1275;22149;-73
2023/04/19 01:16:55;;;;;;;17.70;10.30;;;;;;;;;;110186;1279;22134;-73
2023/04/19 01:19:22;;;;;;;18.10;10.60;;;;;;;;;;110233;1279;22166;-74
2023/04/19 01:21:49;;;;;;;20.40;11.20;;;;;;;;;;110692;1256;22215;-73
2023/04/19 01:24:15;;;;;;;19.50;11.00;;;;;;;;;;110114;1278;22784;-73
2023/04/19 01:26:42;;;;;;;19.30;10.10;;;;;;;;;;110288;1278;22884;-73
2023/04/19 01:29:09;;;;;;;18.80;10.40;;;;;;;;;;110126;1279;22121;-73
2023/04/19 01:31:50;;;;;;;18.00;10.00;;;;;;;;;;110435;1260;22557;-73
2023/04/19 01:34:27;;;;;;;17.00;9.70;;;;;;;;;;110084;1280;22121;-73
2023/04/19 01:36:54;;;;;;;18.30;9.60;;;;;;;;;;110058;1280;22195;-73
2023/04/19 01:39:20;;;;;;;16.60;8.80;;;;;;;;;;110099;1280;22956;-74
2023/04/19 01:41:47;;;;;;;18.50;10.30;;;;;;;;;;110382;1259;22187;-73
2023/04/19 01:44:14;;;;;;;18.60;10.20;;;;;;;;;;110329;1279;21997;-73
2023/04/19 01:46:41;;;;;;;16.70;9.60;;;;;;;;;;110168;1279;22830;-73
2023/04/19 01:49:08;;;;;;;17.00;9.00;;;;;;;;;;110188;1279;22174;-74
2023/04/19 01:51:36;;;;;;;19.00;10.10;;;;;;;;;;110372;1260;22204;-75
2023/04/19 01:54:03;;;;;;;17.50;9.60;;;;;;;;;;110086;1280;22121;-73
2023/04/19 01:56:31;;;;;;;19.90;9.70;;;;;;;;;;110093;1280;22960;-76
2023/04/19 01:58:58;;;;;;;19.60;10.70;;;;;;;;;;110060;1280;22101;-74
2023/04/19 02:01:25;;;;;;;20.50;10.00;;;;;;;;;;110192;1262;22087;-74
2023/04/19 02:03:51;;;;;;;18.40;9.40;;;;;;;;;;110171;1279;23035;-73
2023/04/19 02:06:18;;;;;;;16.30;8.90;;;;;;;;;;110318;1272;22139;-74
2023/04/19 02:08:45;;;;;;;19.10;9.90;;;;;;;;;;110321;1279;22118;-74
2023/04/19 02:11:15;;;;;;;17.20;9.00;;;;;;;;;;110140;1262;22210;-75
2023/04/19 02:13:41;;;;;;;16.90;9.50;;;;;;;;;;110193;1276;22151;-74
2023/04/19 02:16:09;;;;;;;18.20;9.30;;;;;;;;;;110146;1279;22095;-74
2023/04/19 02:18:39;;;;;;;15.60;8.60;;;;;;;;;;110167;1279;22107;-74
2023/04/19 02:21:09;;;;;;;16.60;8.40;;;;;;;;;;110149;1257;22344;-74
2023/04/19 02:23:36;;;;;;;15.00;8.20;;;;;;;;;;110085;1280;22774;-74
2023/04/19 02:26:03;;;;;;;16.10;8.30;;;;;;;;;;110021;1280;22957;-74
2023/04/19 02:28:30;;;;;;;16.80;8.00;;;;;;;;;;110189;1280;22120;-74
2023/04/19 02:30:57;;;;;;;15.60;8.60;;;;;;;;;;110011;1281;22241;-74
2023/04/19 02:33:34;;;;;;;15.20;7.90;;;;;;;;;;110429;1259;22110;-74
2023/04/19 02:36:01;;;;;;;13.40;6.60;;;;;;;;;;110056;1267;23285;-74
2023/04/19 02:38:27;;;;;;;15.70;8.40;;;;;;;;;;110046;1281;22985;-74
2023/04/19 02:40:54;;;;;;;15.50;7.90;;;;;;;;;;110051;1281;22482;-74
2023/04/19 02:43:30;;;;;;;14.60;7.50;;;;;;;;;;110439;1259;22174;-74
2023/04/19 02:46:00;;;;;;;15.40;8.10;;;;;;;;;;110099;1281;22134;-74
2023/04/19 02:48:27;;;;;;;14.70;7.70;;;;;;;;;;110105;1281;22750;-74
2023/04/19 02:50:54;;;;;;;15.70;8.60;;;;;;;;;;109977;1281;22177;-74
2023/04/19 02:53:21;;;;;;;15.00;8.00;;;;;;;;;;110171;1261;22289;-74
2023/04/19 02:55:48;;;;;;;16.50;8.70;;;;;;;;;;110059;1281;22751;-74
2023/04/19 02:58:17;;;;;;;15.00;8.10;;;;;;;;;;110125;1281;22104;-75
2023/04/19 03:05:14;;;;;;;18.20;7.80;;;;;;;;;;110033;1262;22846;-73
2023/04/19 03:07:41;;;;;;;16.00;7.70;;;;;;;;;;109965;1284;22120;-73
2023/04/19 03:14:02;;;;;;;15.90;7.60;;;;;;;;;;109703;1268;22171;-73
2023/04/19 03:16:29;;;;;;;16.40;7.70;;;;;;;;;;109649;1289;22820;-74
2023/04/19 03:18:56;;;;;;;15.40;7.20;;;;;;;;;;109654;1289;22378;-74
2023/04/19 03:21:26;;;;;;;14.70;6.90;;;;;;;;;;109634;1289;22342;-74
2023/04/19 03:23:53;;;;;;;13.80;6.10;;;;;;;;;;109619;1268;22099;-75
2023/04/19 03:26:28;;;;;;;16.20;6.10;;;;;;;;;;109520;1289;22792;-73
2023/04/19 03:28:56;;;;;;;15.90;6.70;;;;;;;;;;109634;1289;22375;-74
2023/04/19 03:31:26;;;;;;;14.60;6.40;;;;;;;;;;109558;1289;21989;-74
2023/04/19 03:34:03;;;;;;;17.90;7.70;;;;;;;;;;109628;1267;22441;-74
2023/04/19 03:36:35;;;;;;;12.90;6.10;;;;;;;;;;109591;1289;22251;-74
2023/04/19 03:39:16;;;;;;;13.70;7.00;;;;;;;;;;109866;1284;22214;-74
2023/04/19 03:41:45;;;;;;;14.70;6.20;;;;;;;;;;109898;1285;22163;-74
2023/04/19 03:44:35;;;;;;;18.40;9.10;;;;;;;;;;109912;1265;22162;-74
2023/04/19 03:51:38;;;;;;;15.50;8.00;;;;;;;;;;109981;1284;22084;-74
2023/04/19 03:54:07;;;;;;;20.20;8.60;;;;;;;;;;109972;1263;22258;-74
2023/04/19 03:56:34;;;;;;;32.80;15.00;;;;;;;;;;109880;1284;22160;-75
2023/04/19 03:59:02;;;;;;;23.50;12.00;;;;;;;;;;109941;1284;22124;-74
2023/04/19 04:01:30;;;;;;;16.40;8.10;;;;;;;;;;109881;1284;22132;-74
2023/04/19 04:03:57;;;;;;;14.90;8.00;;;;;;;;;;109823;1284;22152;-74
2023/04/19 04:06:32;;;;;;;15.10;7.60;;;;;;;;;;109981;1262;22120;-74
2023/04/19 04:08:59;;;;;;;13.40;7.30;;;;;;;;;;109951;1283;22331;-74
2023/04/19 04:11:26;;;;;;;16.00;7.20;;;;;;;;;;109924;1284;22131;-74
2023/04/19 04:13:54;;;;;;;15.90;6.80;;;;;;;;;;109944;1284;22193;-74
2023/04/19 04:16:24;;;;;;;13.10;6.20;;;;;;;;;;109750;1268;22316;-73
2023/04/19 04:18:51;;;;;;;15.70;5.90;;;;;;;;;;109883;1285;22155;-74
2023/04/19 04:21:18;;;;;;;12.50;5.80;;;;;;;;;;109810;1284;22828;-74
2023/04/19 04:23:48;;;;;;;12.20;5.20;;;;;;;;;;109870;1280;22187;-74
2023/04/19 04:26:24;;;;;;;11.30;5.30;;;;;;;;;;110225;1260;21820;-73
2023/04/19 04:29:02;;;;;;;13.40;4.70;;;;;;;;;;110137;1280;22778;-74
2023/04/19 04:31:30;;;;;;;9.20;4.00;;;;;;;;;;110056;1280;22117;-74
2023/04/19 04:33:57;;;;;;;12.70;4.40;;;;;;;;;;110064;1280;22117;-73
2023/04/19 04:36:28;;;;;;;11.40;4.20;;;;;;;;;;110346;1259;22215;-73
2023/04/19 04:38:56;;;;;;;9.50;4.10;;;;;;;;;;110062;1281;22104;-73
2023/04/19 04:41:24;;;;;;;12.40;4.10;;;;;;;;;;110058;1281;22084;-73
2023/04/19 04:43:53;;;;;;;9.40;3.80;;;;;;;;;;110054;1281;22137;-74
2023/04/19 04:46:24;;;;;;;8.60;4.10;;;;;;;;;;110289;1259;22977;-73
2023/04/19 04:48:52;;;;;;;10.30;4.10;;;;;;;;;;110154;1275;22300;-74
2023/04/19 04:51:20;;;;;;;10.40;3.60;;;;;;;;;;110162;1280;22109;-73
2023/04/19 04:53:50;;;;;;;9.00;3.70;;;;;;;;;;110130;1280;22099;-73
2023/04/19 04:56:19;;;;;;;10.00;4.00;;;;;;;;;;110189;1259;22133;-73
2023/04/19 04:58:47;;;;;;;9.90;3.70;;;;;;;;;;110086;1281;22121;-73
2023/04/19 05:01:22;;;;;;;10.10;3.40;;;;;;;;;;110105;1281;22133;-73
2023/04/19 05:03:51;;;;;;;9.10;3.50;;;;;;;;;;110106;1281;22141;-73
2023/04/19 05:06:19;;;;;;;11.00;3.60;;;;;;;;;;110266;1259;22116;-74
2023/04/19 05:08:46;;;;;;;13.70;3.90;;;;;;;;;;110086;1280;22912;-75
2023/04/19 05:11:26;;;;;;;18.20;4.00;;;;;;;;;;110119;1280;22138;-74
2023/04/19 05:13:54;;;;;;;19.60;3.50;;;;;;;;;;110054;1280;22189;-74
2023/04/19 05:16:22;;;;;;;16.00;3.40;;;;;;;;;;110191;1263;22530;-74
2023/04/19 05:18:49;;;;;;;12.90;3.50;;;;;;;;;;110059;1281;22156;-73
2023/04/19 05:21:19;;;;;;;11.40;3.70;;;;;;;;;;110110;1281;22289;-74
2023/04/19 05:23:46;;;;;;;15.60;3.80;;;;;;;;;;110088;1281;22108;-74
2023/04/19 05:26:14;;;;;;;9.60;3.80;;;;;;;;;;110177;1256;22952;-74
2023/04/19 05:28:44;;;;;;;14.00;4.10;;;;;;;;;;110144;1280;22083;-74
2023/04/19 05:31:19;;;;;;;10.30;3.60;;;;;;;;;;109976;1282;22027;-73
2023/04/19 05:34:08;;;;;;;11.90;3.60;;;;;;;;;;110051;1281;22945;-74
2023/04/19 05:36:37;;;;;;;9.30;2.70;;;;;;;;;;110056;1262;22133;-75
2023/04/19 05:39:05;;;;;;;8.90;3.30;;;;;;;;;;110036;1283;22903;-75
2023/04/19 05:41:35;;;;;;;11.00;3.00;;;;;;;;;;110030;1282;22813;-78
2023/04/19 05:44:04;;;;;;;6.60;2.50;;;;;;;;;;109973;1271;22835;-75
2023/04/19 05:46:33;;;;;;;8.00;2.50;;;;;;;;;;110081;1258;22165;-74
2023/04/19 05:49:02;;;;;;;9.80;2.50;;;;;;;;;;109971;1281;22176;-75
2023/04/19 05:51:58;;;;;;;14.80;3.80;;;;;;;;;;110073;1281;22150;-75
2023/04/19 05:54:55;;;;;;;10.60;3.00;;;;;;;;;;110035;1281;22823;-75
2023/04/19 05:57:25;;;;;;;9.70;3.20;;;;;;;;;;110100;1262;22214;-75
2023/04/19 05:59:53;;;;;;;9.30;2.80;;;;;;;;;;110007;1283;21998;-73
2023/04/19 06:02:25;;;;;;;10.70;3.10;;;;;;;;;;109984;1283;22598;-75
2023/04/19 06:04:55;;;;;;;11.00;3.30;;;;;;;;;;110054;1283;22106;-74
2023/04/19 06:07:24;;;;;;;8.40;2.80;;;;;;;;;;110166;1262;22114;-74
2023/04/19 06:09:53;;;;;;;7.50;2.60;;;;;;;;;;110066;1281;22297;-75
2023/04/19 06:12:21;;;;;;;10.80;2.80;;;;;;;;;;110075;1281;22193;-74
2023/04/19 06:14:51;;;;;;;9.50;2.70;;;;;;;;;;110057;1281;23559;-72
2023/04/19 06:17:24;;;;;;;8.40;2.80;;;;;;;;;;110035;1265;22088;-74
2023/04/19 06:19:53;;;;;;;11.40;2.70;;;;;;;;;;110031;1282;22096;-74
2023/04/19 06:22:22;;;;;;;11.50;2.80;;;;;;;;;;110056;1281;22114;-74
2023/04/19 06:24:51;;;;;;;8.40;2.70;;;;;;;;;;110025;1281;22847;-74
2023/04/19 06:27:20;;;;;;;10.40;2.90;;;;;;;;;;110065;1258;22837;-74
2023/04/19 06:36:51;;;;;;;9.00;2.80;;;;;;;;;;104643;1296;544868;-75
2023/04/19 06:39:18;;;;;;;11.80;2.90;;;;;;;;;;106180;1288;22538;-80
2023/04/19 06:41:48;;;;;;;11.00;2.90;;;;;;;;;;106032;1288;24071;-76
2023/04/19 06:44:25;;;;;;;8.90;2.90;;;;;;;;;;105997;1288;25326;-76
2023/04/19 06:46:52;;;;;;;12.30;2.70;;;;;;;;;;106107;1279;24274;-81
2023/04/19 06:49:23;;;;;;;10.60;2.60;;;;;;;;;;105234;1279;5397760;-76
2023/04/19 06:51:57;;;;;;;13.20;2.80;;;;;;;;;;106321;1285;22552;-76
2023/04/19 06:54:24;;;;;;;12.40;2.60;;;;;;;;;;107048;1274;22575;-81
2023/04/19 06:56:50;;;;;;;12.30;3.00;;;;;;;;;;106897;1267;22618;-82
2023/04/19 06:59:27;;;;;;;11.20;2.90;;;;;;;;;;107039;1274;24279;-82
2023/04/19 07:01:56;;;;;;;7.30;2.60;;;;;;;;;;107028;1274;24227;-74
2023/04/19 07:04:24;;;;;;;8.80;2.40;;;;;;;;;;106991;1275;25223;-77
2023/04/19 07:06:51;;;;;;;9.90;2.90;;;;;;;;;;107116;1264;22524;-80
2023/04/19 07:09:23;;;;;;;8.70;2.50;;;;;;;;;;107133;1274;22541;-78
2023/04/19 07:11:50;;;;;;;11.30;3.00;;;;;;;;;;107126;1274;22485;-74
2023/04/19 07:14:18;;;;;;;10.00;3.20;;;;;;;;;;107138;1274;22602;-81
2023/04/19 07:16:45;;;;;;;8.30;2.40;;;;;;;;;;107005;1266;25322;-78
2023/04/19 07:19:12;;;;;;;10.80;2.70;;;;;;;;;;106901;1275;22520;-79
2023/04/19 07:21:40;;;;;;;8.40;3.00;;;;;;;;;;107208;1274;25398;-75
2023/04/19 07:24:07;;;;;;;8.10;2.80;;;;;;;;;;107201;1274;24235;-77
2023/04/19 07:26:39;;;;;;;8.80;2.70;;;;;;;;;;107108;1274;22523;-80
2023/04/19 07:29:05;;;;;;;15.60;3.50;;;;;;;;;;106856;1274;22765;-75
2023/04/19 07:31:35;;;;;;;6.80;2.80;;;;;;;;;;107061;1275;24540;-81
2023/04/19 07:34:07;;;;;;;6.40;2.00;;;;;;;;;;107079;1275;25318;-75
2023/04/19 07:36:35;;;;;;;7.80;2.30;;;;;;;;;;107054;1275;25277;-75
2023/04/19 07:39:08;;;;;;;8.80;2.70;;;;;;;;;;107003;1266;22545;-74
2023/04/19 07:41:35;;;;;;;10.70;3.20;;;;;;;;;;106983;1272;22517;-77
2023/04/19 07:44:04;;;;;;;9.20;3.10;;;;;;;;;;107087;1275;23798;-75
2023/04/19 07:46:31;;;;;;;8.00;2.70;;;;;;;;;;107141;1275;25511;-78
2023/04/19 07:48:57;;;;;;;9.00;3.00;;;;;;;;;;107205;1266;22532;-73
2023/04/19 07:51:36;;;;;;;9.00;2.90;;;;;;;;;;106969;1266;25223;-77
2023/04/19 07:54:02;;;;;;;9.60;2.60;;;;;;;;;;107098;1275;22532;-82
2023/04/19 07:56:38;;;;;;;9.90;2.80;;;;;;;;;;107048;1275;22723;-81
2023/04/19 07:59:05;;;;;;;8.90;2.80;;;;;;;;;;107046;1257;25329;-75
2023/04/19 08:01:34;;;;;;;8.90;2.80;;;;;;;;;;106875;1275;23600;-82
2023/04/19 08:04:01;;;;;;;8.50;2.90;;;;;;;;;;107053;1275;22630;-81
2023/04/19 08:06:29;;;;;;;9.10;3.10;;;;;;;;;;107107;1275;24363;-74
2023/04/19 08:08:58;;;;;;;8.50;3.10;;;;;;;;;;106928;1267;22870;-79
2023/04/19 08:11:25;;;;;;;8.20;3.10;;;;;;;;;;106983;1275;22524;-74
2023/04/19 08:13:52;;;;;;;9.40;4.30;;;;;;;;;;107073;1254;22551;-77
2023/04/19 08:16:19;;;;;;;10.20;3.10;;;;;;;;;;107057;1275;22520;-80
2023/04/19 08:19:06;;;;;;;11.00;3.20;;;;;;;;;;107004;1256;25556;-80
2023/04/19 08:21:32;;;;;;;11.10;6.90;;;;;;;;;;107054;1275;24230;-81
2023/04/19 08:24:02;;;;;;;12.30;5.00;;;;;;;;;;107042;1275;22763;-82
2023/04/19 08:26:29;;;;;;;13.90;5.70;;;;;;;;;;106943;1275;22669;-80
2023/04/19 08:28:58;;;;;;;20.30;8.30;;;;;;;;;;107060;1258;22536;-78
2023/04/19 08:31:27;;;;;;;15.10;6.40;;;;;;;;;;107117;1275;23898;-76
2023/04/19 08:33:54;;;;;;;8.70;3.80;;;;;;;;;;106808;1275;24243;-78
2023/04/19 08:36:21;;;;;;;8.30;3.50;;;;;;;;;;106950;1275;24243;-76
2023/04/19 08:38:48;;;;;;;8.60;3.70;;;;;;;;;;106661;1275;22527;-79
2023/04/19 08:41:17;;;;;;;10.60;3.90;;;;;;;;;;107002;1275;22626;-74
2023/04/19 08:43:44;;;;;;;9.40;3.30;;;;;;;;;;107052;1275;22523;-79
2023/04/19 08:46:11;;;;;;;9.60;3.80;;;;;;;;;;107063;1257;22523;-74
2023/04/19 08:48:39;;;;;;;9.80;3.90;;;;;;;;;;107047;1257;22647;-79
2023/04/19 08:51:12;;;;;;;9.80;3.80;;;;;;;;;;107362;1275;24673;-76
2023/04/19 08:53:40;;;;;;;9.70;3.40;;;;;;;;;;107041;1275;22530;-76
2023/04/19 08:56:07;;;;;;;7.10;2.60;;;;;;;;;;106936;1275;22524;-76
2023/04/19 08:58:34;;;;;;;10.00;3.90;;;;;;;;;;107011;1257;22519;-82
2023/04/19 09:01:03;;;;;;;8.80;3.50;;;;;;;;;;107054;1275;25344;-76
2023/04/19 09:03:41;;;;;;;8.90;3.40;;;;;;;;;;107090;1275;25288;-80
2023/04/19 09:06:10;;;;;;;10.80;3.80;;;;;;;;;;107015;1275;22568;-82
2023/04/19 09:08:38;;;;;;;12.30;6.40;;;;;;;;;;107030;1264;22516;-81
2023/04/19 09:11:05;;;;;;;26.60;18.40;;;;;;;;;;106861;1275;22538;-79
2023/04/19 09:13:39;;;;;;;18.40;12.00;;;;;;;;;;107004;1275;22522;-76
2023/04/19 09:16:21;;;;;;;14.20;7.40;;;;;;;;;;106983;1275;22483;-78
2023/04/19 09:18:56;;;;;;;12.00;5.60;;;;;;;;;;107043;1257;24346;-80
2023/04/19 09:21:30;;;;;;;12.60;7.00;;;;;;;;;;106836;1275;24215;-78
2023/04/19 09:24:00;;;;;;;13.10;5.90;;;;;;;;;;107163;1275;22528;-81
2023/04/19 09:26:30;;;;;;;16.60;7.70;;;;;;;;;;106947;1272;22537;-75
2023/04/19 09:29:00;;;;;;;9.40;3.70;;;;;;;;;;107252;1275;22584;-73
2023/04/19 09:31:30;;;;;;;13.30;4.40;;;;;;;;;;107180;1274;25318;-77
2023/04/19 09:34:13;;;;;;;10.80;3.90;;;;;;;;;;107217;1275;22534;-74
2023/04/19 09:36:40;;;;;;;11.70;5.40;;;;;;;;;;107126;1274;22781;-77
2023/04/19 09:39:27;;;;;;;9.20;3.90;;;;;;;;;;106827;1274;25485;-77
2023/04/19 09:41:54;;;;;;;9.00;3.80;;;;;;;;;;107117;1256;25274;-75
2023/04/19 09:44:23;;;;;;;7.50;3.60;;;;;;;;;;107100;1274;23908;-76
2023/04/19 09:46:59;;;;;;;10.70;3.70;;;;;;;;;;107027;1275;22523;-82
2023/04/19 09:49:35;;;;;;;10.50;3.80;;;;;;;;;;107052;1256;22531;-74
2023/04/19 09:52:12;;;;;;;12.30;3.90;;;;;;;;;;107090;1274;25494;-75
2023/04/19 09:54:47;;;;;;;8.50;3.80;;;;;;;;;;107103;1274;24247;-82
2023/04/19 09:57:23;;;;;;;10.10;4.30;;;;;;;;;;107119;1274;25344;-78
2023/04/19 09:59:50;;;;;;;11.20;4.10;;;;;;;;;;107099;1274;22537;-77
2023/04/19 10:02:17;;;;;;;9.20;3.90;;;;;;;;;;106999;1258;22543;-83
2023/04/19 10:04:45;;;;;;;9.20;4.00;;;;;;;;;;107150;1274;22520;-74
2023/04/19 10:07:21;;;;;;;10.80;4.00;;;;;;;;;;107013;1274;22483;-79
2023/04/19 10:09:57;;;;;;;12.30;5.00;;;;;;;;;;107193;1274;25422;-74
2023/04/19 10:12:25;;;;;;;11.10;4.10;;;;;;;;;;107232;1257;22531;-75
2023/04/19 10:14:54;;;;;;;8.70;3.30;;;;;;;;;;107143;1274;24199;-77
2023/04/19 10:17:21;;;;;;;10.60;4.30;;;;;;;;;;107166;1274;25411;-74
2023/04/19 10:19:51;;;;;;;12.50;4.40;;;;;;;;;;107146;1274;22524;-78
2023/04/19 10:22:27;;;;;;;10.30;3.90;;;;;;;;;;107126;1257;24222;-81
2023/04/19 10:25:13;;;;;;;14.00;4.70;;;;;;;;;;107178;1274;24323;-81
2023/04/19 10:27:54;;;;;;;16.20;6.00;;;;;;;;;;107094;1274;22541;-78
2023/04/19 10:30:27;;;;;;;19.00;10.70;;;;;;;;;;106956;1274;24348;-76
2023/04/19 10:33:06;;;;;;;22.50;11.30;;;;;;;;;;107025;1267;22494;-76
2023/04/19 10:35:46;;;;;;;14.10;6.10;;;;;;;;;;107035;1274;22636;-76
2023/04/19 10:38:43;;;;;;;11.90;5.00;;;;;;;;;;107121;1274;24224;-77
2023/04/19 10:41:16;;;;;;;13.00;6.70;;;;;;;;;;107098;1251;25745;-81
2023/04/19 10:43:58;;;;;;;16.00;8.70;;;;;;;;;;107027;1274;22667;-77
2023/04/19 10:46:28;;;;;;;12.40;6.10;;;;;;;;;;107111;1264;25461;-74
2023/04/19 10:49:45;;;;;;;17.70;7.20;;;;;;;;;;107108;1274;22621;-81
2023/04/19 10:51:56;;;;;;;54.10;23.90;;;;;;;;;;107067;1257;22520;-81
2023/04/19 10:54:32;;;;;;;28.30;17.80;;;;;;;;;;107062;1274;22586;-80
2023/04/19 10:57:26;;;;;;;14.60;7.20;;;;;;;;;;107041;1274;24196;-78
2023/04/19 11:00:16;;;;;;;14.60;6.20;;;;;;;;;;107122;1274;22243;-77
2023/04/19 11:02:43;;;;;;;23.80;13.30;;;;;;;;;;110583;1254;22168;-75
2023/04/19 11:05:12;;;;;;;19.20;10.10;;;;;;;;;;110616;1274;22118;-76
2023/04/19 11:07:40;;;;;;;17.00;7.60;;;;;;;;;;110609;1273;22619;-75
2023/04/19 11:10:07;;;;;;;16.10;6.70;;;;;;;;;;110593;1274;23071;-75
2023/04/19 11:12:34;;;;;;;13.20;7.20;;;;;;;;;;110675;1256;22142;-76
2023/04/19 11:15:01;;;;;;;15.10;6.50;;;;;;;;;;110593;1272;22199;-75
2023/04/19 11:17:30;;;;;;;13.20;8.00;;;;;;;;;;110574;1274;22102;-75
2023/04/19 11:20:01;;;;;;;17.80;8.90;;;;;;;;;;110604;1274;22764;-75
2023/04/19 11:22:32;;;;;;;17.70;8.10;;;;;;;;;;110620;1256;22056;-76
2023/04/19 11:25:18;;;;;;;15.20;7.20;;;;;;;;;;110594;1274;22374;-75
2023/04/19 11:27:46;;;;;;;12.60;6.20;;;;;;;;;;110634;1274;22231;-75
2023/04/19 11:30:14;;;;;;;15.30;6.40;;;;;;;;;;110586;1274;22170;-75
2023/04/19 11:32:45;;;;;;;16.50;6.90;;;;;;;;;;110658;1257;22113;-75
2023/04/19 11:35:12;;;;;;;15.70;6.70;;;;;;;;;;110579;1275;22885;-76
2023/04/19 11:37:38;;;;;;;21.70;9.70;;;;;;;;;;110530;1275;22098;-76
2023/04/19 11:40:06;;;;;;;20.60;10.20;;;;;;;;;;110665;1275;22139;-75
2023/04/19 11:42:32;;;;;;;17.50;7.60;;;;;;;;;;110589;1254;22862;-75
2023/04/19 11:44:59;;;;;;;16.30;8.00;;;;;;;;;;110466;1275;22136;-75
2023/04/19 11:47:26;;;;;;;13.90;6.30;;;;;;;;;;110614;1275;22196;-76
2023/04/19 11:49:56;;;;;;;15.80;6.60;;;;;;;;;;110523;1275;22128;-75
2023/04/19 11:52:23;;;;;;;15.30;7.20;;;;;;;;;;110563;1275;22435;-75
2023/04/19 11:54:51;;;;;;;17.80;9.70;;;;;;;;;;110431;1257;22123;-75
2023/04/19 11:57:30;;;;;;;14.10;6.20;;;;;;;;;;110636;1275;22147;-75
2023/04/19 12:00:10;;;;;;;15.90;8.60;;;;;;;;;;110514;1275;22120;-75
2023/04/19 12:02:42;;;;;;;16.50;8.90;;;;;;;;;;110615;1253;22336;-74
2023/04/19 12:05:09;;;;;;;16.60;7.30;;;;;;;;;;110450;1275;22083;-72
2023/04/19 12:07:36;;;;;;;13.20;6.30;;;;;;;;;;110524;1275;22221;-73
2023/04/19 12:10:09;;;;;;;14.80;6.40;;;;;;;;;;110497;1275;22879;-75
2023/04/19 12:12:36;;;;;;;14.80;7.10;;;;;;;;;;110489;1265;22393;-74
2023/04/19 12:15:04;;;;;;;12.00;6.10;;;;;;;;;;111011;1256;22126;-74
2023/04/19 12:17:31;;;;;;;11.00;5.40;;;;;;;;;;110454;1275;22406;-75
2023/04/19 12:19:58;;;;;;;12.00;5.30;;;;;;;;;;110554;1275;22874;-74
2023/04/19 12:22:25;;;;;;;9.90;5.00;;;;;;;;;;110494;1275;23236;-74
2023/04/19 12:24:52;;;;;;;10.10;4.70;;;;;;;;;;110679;1253;22106;-75
2023/04/19 12:27:19;;;;;;;11.60;5.10;;;;;;;;;;110448;1275;22099;-75
2023/04/19 12:29:46;;;;;;;11.50;4.80;;;;;;;;;;110586;1275;22026;-75
2023/04/19 12:32:14;;;;;;;9.90;4.70;;;;;;;;;;110537;1275;22143;-75
2023/04/19 12:34:41;;;;;;;10.70;5.30;;;;;;;;;;110665;1257;22450;-75
2023/04/19 12:37:08;;;;;;;15.00;8.20;;;;;;;;;;110602;1275;21957;-74
2023/04/19 12:39:35;;;;;;;14.80;6.40;;;;;;;;;;110491;1275;22389;-77
2023/04/19 12:42:02;;;;;;;15.00;6.30;;;;;;;;;;110503;1275;22880;-75
2023/04/19 12:44:29;;;;;;;11.10;5.30;;;;;;;;;;110742;1253;22427;-75
2023/04/19 12:46:56;;;;;;;13.40;6.90;;;;;;;;;;110515;1275;22842;-74
2023/04/19 12:49:23;;;;;;;20.80;9.90;;;;;;;;;;110432;1275;22191;-75
2023/04/19 12:51:50;;;;;;;23.00;9.10;;;;;;;;;;110525;1275;22163;-78
2023/04/19 12:54:17;;;;;;;13.40;6.70;;;;;;;;;;110524;1253;22148;-74
2023/04/19 12:56:44;;;;;;;14.70;6.40;;;;;;;;;;110591;1275;22760;-75
2023/04/19 12:59:11;;;;;;;20.10;8.90;;;;;;;;;;110498;1275;22325;-75
2023/04/19 13:01:38;;;;;;;23.20;9.50;;;;;;;;;;110505;1276;22467;-75
2023/04/19 13:04:10;;;;;;;23.30;9.00;;;;;;;;;;110630;1252;22110;-74
2023/04/19 13:06:40;;;;;;;20.10;9.60;;;;;;;;;;110621;1275;22275;-76
2023/04/19 13:09:07;;;;;;;17.10;6.60;;;;;;;;;;110486;1275;22145;-75
2023/04/19 13:11:34;;;;;;;30.20;11.10;;;;;;;;;;110492;1275;22168;-75
2023/04/19 13:14:01;;;;;;;30.20;12.20;;;;;;;;;;110431;1276;22111;-75
2023/04/19 13:16:28;;;;;;;17.20;6.90;;;;;;;;;;110501;1257;22392;-75
2023/04/19 13:18:54;;;;;;;13.50;6.30;;;;;;;;;;110568;1275;22122;-75
2023/04/19 13:21:22;;;;;;;10.90;5.60;;;;;;;;;;110483;1275;22110;-76
2023/04/19 13:23:49;;;;;;;10.10;5.50;;;;;;;;;;110494;1275;22129;-78
2023/04/19 13:26:16;;;;;;;11.80;6.10;;;;;;;;;;110728;1253;22154;-75
2023/04/19 13:28:43;;;;;;;14.80;6.80;;;;;;;;;;110573;1275;22068;-76
2023/04/19 13:31:10;;;;;;;14.30;6.50;;;;;;;;;;110628;1275;22110;-75
2023/04/19 13:33:38;;;;;;;11.20;6.30;;;;;;;;;;110480;1276;22756;-75
2023/04/19 13:36:05;;;;;;;11.30;6.40;;;;;;;;;;110724;1256;22112;-75
2023/04/19 13:38:32;;;;;;;17.80;7.60;;;;;;;;;;110658;1276;22105;-75
2023/04/19 13:40:59;;;;;;;16.10;7.90;;;;;;;;;;110609;1276;22863;-77
2023/04/19 13:43:27;;;;;;;16.20;8.30;;;;;;;;;;110588;1276;22113;-75
2023/04/19 13:45:57;;;;;;;15.50;7.30;;;;;;;;;;110750;1257;22249;-75
2023/04/19 13:48:27;;;;;;;11.30;6.00;;;;;;;;;;110495;1276;22149;-75
2023/04/19 13:50:55;;;;;;;11.10;5.40;;;;;;;;;;110360;1258;22112;-75
2023/04/19 13:53:22;;;;;;;12.70;7.50;;;;;;;;;;110405;1276;21780;-76
2023/04/19 13:55:49;;;;;;;12.30;6.70;;;;;;;;;;110743;1257;22139;-75
2023/04/19 13:58:17;;;;;;;12.30;6.30;;;;;;;;;;110650;1276;22116;-75
2023/04/19 14:00:44;;;;;;;11.30;6.50;;;;;;;;;;110591;1276;22094;-75
2023/04/19 14:03:11;;;;;;;9.70;5.10;;;;;;;;;;110495;1276;22111;-75
2023/04/19 14:05:38;;;;;;;12.80;7.10;;;;;;;;;;110736;1253;22129;-76
2023/04/19 14:08:05;;;;;;;10.90;5.70;;;;;;;;;;110502;1276;22113;-77
2023/04/19 14:10:33;;;;;;;13.00;7.10;;;;;;;;;;110590;1276;22428;-75
2023/04/19 14:13:00;;;;;;;15.30;9.00;;;;;;;;;;110470;1276;22773;-76
2023/04/19 14:15:26;;;;;;;12.70;6.70;;;;;;;;;;110382;1253;22173;-78
2023/04/19 14:17:54;;;;;;;7.90;4.00;;;;;;;;;;110601;1275;23172;-75
2023/04/19 14:20:21;;;;;;;9.60;5.00;;;;;;;;;;110456;1276;22149;-75
2023/04/19 14:22:48;;;;;;;10.00;5.00;;;;;;;;;;110475;1276;22111;-75
2023/04/19 14:25:15;;;;;;;9.30;4.70;;;;;;;;;;110482;1276;22124;-77
2023/04/19 14:27:51;;;;;;;12.50;4.70;;;;;;;;;;110797;1257;22319;-75
2023/04/19 14:30:18;;;;;;;10.70;5.50;;;;;;;;;;110555;1276;22187;-75
2023/04/19 14:32:45;;;;;;;8.40;3.90;;;;;;;;;;110339;1275;22323;-76
2023/04/19 14:35:12;;;;;;;10.00;4.00;;;;;;;;;;110347;1276;22105;-75
2023/04/19 14:37:39;;;;;;;11.10;4.80;;;;;;;;;;110781;1257;22425;-74
2023/04/19 14:40:07;;;;;;;13.00;6.10;;;;;;;;;;110498;1276;22066;-75
2023/04/19 14:42:37;;;;;;;15.00;6.80;;;;;;;;;;110467;1276;22116;-75
2023/04/19 14:45:05;;;;;;;13.90;6.90;;;;;;;;;;110490;1276;22624;-75
2023/04/19 14:47:32;;;;;;;11.90;5.80;;;;;;;;;;110735;1257;22326;-76
2023/04/19 14:49:59;;;;;;;10.90;4.70;;;;;;;;;;110482;1276;22867;-75
2023/04/19 14:52:26;;;;;;;14.90;7.30;;;;;;;;;;110435;1276;22429;-75